createdAt,value
2022-08-05T00:00:20.311Z,21.96
2022-08-05T00:02:51.089Z,21.09
2022-08-05T00:06:01.782Z,20.56
2022-08-05T00:08:09.078Z,20.33
2022-08-05T00:10:55.955Z,20.29
2022-08-05T00:13:38.260Z,20.44
2022-08-05T00:16:12.855Z,20.61
2022-08-05T00:18:44.259Z,20.76
2022-08-05T00:21:14.454Z,20.78
2022-08-05T00:23:45.938Z,20.81
2022-08-05T00:26:16.461Z,20.86
2022-08-05T00:28:45.764Z,20.84
2022-08-05T00:31:13.594Z,20.84
2022-08-05T00:34:54.614Z,20.87
2022-08-05T00:37:10.632Z,20.65
2022-08-05T00:39:13.708Z,20.64
2022-08-05T00:41:52.028Z,20.78
2022-08-05T00:44:30.326Z,20.78
2022-08-05T00:47:03.660Z,20.78
2022-08-05T00:49:44.430Z,20.74
2022-08-05T00:52:18.354Z,20.62
2022-08-05T00:54:55.080Z,20.54
2022-08-05T00:57:25.262Z,20.52
2022-08-05T00:59:58.200Z,20.55
2022-08-05T01:02:24.839Z,20.53
2022-08-05T01:04:51.389Z,20.42
2022-08-05T01:07:18.143Z,20.36
2022-08-05T01:09:45.463Z,20.30
2022-08-05T01:12:25.042Z,20.26
2022-08-05T01:15:05.322Z,20.21
2022-08-05T01:17:53.656Z,20.20
2022-08-05T01:20:54.861Z,20.16
2022-08-05T01:24:22.235Z,20.01
2022-08-05T01:27:19.259Z,19.94
2022-08-05T01:29:52.150Z,20.01
2022-08-05T01:32:27.672Z,20.07
2022-08-05T01:35:10.724Z,20.07
2022-08-05T01:37:45.458Z,20.08
2022-08-05T01:40:17.964Z,20.09
2022-08-05T01:42:48.954Z,20.07
2022-08-05T01:45:18.166Z,20.04
2022-08-05T01:47:49.675Z,20.08
2022-08-05T01:50:30.947Z,20.12
2022-08-05T01:53:04.263Z,20.19
2022-08-05T01:55:36.237Z,20.18
2022-08-05T01:58:18.882Z,20.13
2022-08-05T02:00:57.258Z,20.01
2022-08-05T02:03:34.254Z,19.96
2022-08-05T02:06:33.603Z,19.88
2022-08-05T02:08:58.193Z,19.75
2022-08-05T02:11:33.259Z,19.73
2022-08-05T02:14:13.051Z,19.67
2022-08-05T02:16:52.865Z,19.66
2022-08-05T02:19:28.580Z,19.69
2022-08-05T02:22:29.963Z,19.74
2022-08-05T02:25:04.962Z,19.73
2022-08-05T02:27:58.498Z,19.79
2022-08-05T02:30:32.370Z,19.75
2022-08-05T02:33:04.746Z,19.64
2022-08-05T02:35:38.090Z,19.58
2022-08-05T02:38:19.281Z,19.57
2022-08-05T02:40:46.900Z,19.64
2022-08-05T02:43:18.075Z,19.66
2022-08-05T02:45:52.848Z,19.67
2022-08-05T02:48:29.582Z,19.65
2022-08-05T02:51:02.574Z,19.65
2022-08-05T02:53:39.468Z,19.64
2022-08-05T02:56:15.926Z,19.58
2022-08-05T02:58:51.232Z,19.63
2022-08-05T03:01:25.170Z,19.66
2022-08-05T03:04:02.968Z,19.61
2022-08-05T03:06:56.096Z,19.56
2022-08-05T03:09:36.481Z,19.52
2022-08-05T03:12:06.246Z,19.53
2022-08-05T03:14:34.994Z,19.62
2022-08-05T03:17:12.519Z,19.75
2022-08-05T03:22:16.646Z,19.86
2022-08-05T03:24:50.667Z,19.87
2022-08-05T03:27:19.657Z,19.88
2022-08-05T03:30:07.661Z,19.93
2022-08-05T03:32:34.736Z,19.92
2022-08-05T03:35:04.461Z,19.94
2022-08-05T03:37:31.321Z,19.96
2022-08-05T03:40:12.043Z,19.94
2022-08-05T03:42:41.796Z,19.91
2022-08-05T03:45:22.475Z,19.83
2022-08-05T03:47:51.241Z,19.85
2022-08-05T03:50:18.642Z,19.90
2022-08-05T03:55:53.091Z,19.89
2022-08-05T03:56:10.081Z,19.89
2022-08-05T03:58:48.567Z,19.89
2022-08-05T04:01:21.837Z,19.88
2022-08-05T04:04:08.883Z,19.88
2022-08-05T04:06:38.057Z,19.85
2022-08-05T04:09:08.395Z,19.77
2022-08-05T04:11:47.631Z,19.75
2022-08-05T04:14:19.524Z,19.78
2022-08-05T04:17:02.088Z,19.79
2022-08-05T04:19:29.910Z,19.80
2022-08-05T04:22:08.589Z,19.87
2022-08-05T04:24:52.682Z,19.78
2022-08-05T04:27:41.673Z,19.73
2022-08-05T04:30:09.262Z,19.77
2022-08-05T04:32:36.726Z,19.86
2022-08-05T04:35:05.898Z,19.93
2022-08-05T04:38:01.333Z,19.98
2022-08-05T04:40:19.836Z,19.91
2022-08-05T04:42:46.499Z,19.90
2022-08-05T04:45:14.152Z,19.83
2022-08-05T04:47:49.630Z,19.77
2022-08-05T04:50:37.368Z,19.71
2022-08-05T04:53:04.139Z,19.67
2022-08-05T04:55:49.821Z,19.64
2022-08-05T04:58:21.645Z,19.58
2022-08-05T05:00:50.797Z,19.62
2022-08-05T05:03:20.371Z,19.72
2022-08-05T05:06:40.506Z,19.74
2022-08-05T05:08:33.580Z,19.79
2022-08-05T05:11:00.071Z,19.87
2022-08-05T05:13:26.728Z,19.89
2022-08-05T05:16:06.047Z,19.90
2022-08-05T05:18:34.310Z,19.90
2022-08-05T05:21:03.445Z,19.90
2022-08-05T05:24:03.009Z,19.89
2022-08-05T05:26:17.019Z,19.65
2022-08-05T05:28:45.130Z,19.67
2022-08-05T05:31:12.068Z,19.55
2022-08-05T05:33:58.758Z,19.54
2022-08-05T05:36:25.103Z,19.62
2022-08-05T05:38:55.501Z,19.79
2022-08-05T05:41:22.129Z,19.95
2022-08-05T05:43:57.685Z,20.05
2022-08-05T05:46:26.439Z,20.08
2022-08-05T05:48:53.008Z,20.12
2022-08-05T05:51:25.685Z,20.23
2022-08-05T05:53:58.948Z,20.28
2022-08-05T05:56:32.182Z,20.35
2022-08-05T05:59:05.202Z,20.40
2022-08-05T06:01:37.050Z,20.41
2022-08-05T06:04:12.526Z,20.40
2022-08-05T06:06:42.592Z,20.42
2022-08-05T06:09:09.499Z,20.43
2022-08-05T06:12:01.852Z,20.42
2022-08-05T06:14:34.614Z,20.46
2022-08-05T06:17:21.974Z,20.52
2022-08-05T06:19:56.742Z,20.49
2022-08-05T06:22:29.805Z,20.57
2022-08-05T06:24:56.636Z,20.70
2022-08-05T06:28:10.756Z,20.80
2022-08-05T06:30:17.758Z,20.86
2022-08-05T06:32:47.782Z,20.93
2022-08-05T06:35:15.531Z,21.02
2022-08-05T06:37:56.407Z,21.06
2022-08-05T06:40:27.742Z,21.08
2022-08-05T06:42:54.792Z,21.09
2022-08-05T06:46:03.346Z,21.11
2022-08-05T06:48:44.247Z,21.08
2022-08-05T06:50:56.282Z,21.10
2022-08-05T06:53:28.572Z,21.15
2022-08-05T06:55:59.551Z,21.22
2022-08-05T06:58:34.950Z,21.27
2022-08-05T07:01:06.164Z,21.26
2022-08-05T07:03:34.456Z,21.23
2022-08-05T07:06:06.256Z,21.20
2022-08-05T07:08:47.882Z,21.17
2022-08-05T07:11:22.115Z,21.10
2022-08-05T07:14:20.735Z,21.11
2022-08-05T07:18:01.974Z,21.20
2022-08-05T07:22:39.705Z,21.33
2022-08-05T07:25:23.980Z,21.35
2022-08-05T07:28:02.278Z,21.41
2022-08-05T07:30:34.468Z,21.23
2022-08-05T07:33:13.299Z,21.35
2022-08-05T07:36:03.139Z,21.36
2022-08-05T07:38:34.219Z,21.39
2022-08-05T07:42:09.396Z,21.40
2022-08-05T07:43:57.095Z,21.42
2022-08-05T07:46:26.584Z,21.44
2022-08-05T07:49:02.409Z,21.38
2022-08-05T07:51:40.904Z,21.34
2022-08-05T07:54:21.924Z,21.25
2022-08-05T07:57:01.414Z,21.22
2022-08-05T07:59:39.833Z,21.15
2022-08-05T08:02:16.660Z,21.13
2022-08-05T08:04:48.178Z,21.14
2022-08-05T08:07:16.388Z,21.21
2022-08-05T08:09:45.749Z,21.17
2022-08-05T08:12:33.508Z,21.31
2022-08-05T08:15:03.714Z,21.41
2022-08-05T08:17:32.762Z,21.38
2022-08-05T08:20:42.864Z,21.33
2022-08-05T08:22:59.277Z,21.26
2022-08-05T08:25:59.145Z,21.27
2022-08-05T08:28:18.296Z,21.15
2022-08-05T08:30:48.011Z,21.48
2022-08-05T08:33:17.608Z,21.63
2022-08-05T08:35:52.498Z,21.59
2022-08-05T08:38:35.499Z,21.50
2022-08-05T08:41:08.582Z,21.45
2022-08-05T08:45:18.771Z,21.49
2022-08-05T08:46:27.897Z,21.36
2022-08-05T08:49:07.824Z,21.31
2022-08-05T08:52:04.150Z,21.26
2022-08-05T08:54:36.314Z,21.23
2022-08-05T08:57:11.216Z,21.14
2022-08-05T08:59:39.061Z,21.01
2022-08-05T09:02:09.051Z,20.94
2022-08-05T09:04:58.634Z,20.91
2022-08-05T09:07:29.096Z,20.67
2022-08-05T09:10:06.947Z,20.61
2022-08-05T09:12:34.552Z,20.61
2022-08-05T09:15:06.400Z,20.63
2022-08-05T09:17:42.751Z,20.65
2022-08-05T09:20:36.778Z,20.75
2022-08-05T09:23:19.176Z,20.70
2022-08-05T09:26:01.756Z,20.55
2022-08-05T09:28:33.445Z,20.36
2022-08-05T09:31:43.938Z,20.27
2022-08-05T09:34:02.473Z,20.42
2022-08-05T09:36:55.083Z,20.61
2022-08-05T09:39:39.221Z,20.88
2022-08-05T09:42:13.468Z,21.17
2022-08-05T09:44:50.514Z,21.41
2022-08-05T09:47:20.824Z,21.64
2022-08-05T09:50:01.695Z,21.84
2022-08-05T09:52:31.938Z,21.88
2022-08-05T09:55:56.621Z,21.94
2022-08-05T09:57:58.734Z,21.75
2022-08-05T10:00:29.636Z,21.82
2022-08-05T10:02:58.723Z,21.77
2022-08-05T10:05:28.466Z,21.59
2022-08-05T10:08:37.008Z,21.57
2022-08-05T10:10:54.070Z,21.60
2022-08-05T10:13:45.714Z,21.55
2022-08-05T10:16:37.774Z,21.47
2022-08-05T10:19:10.143Z,21.54
2022-08-05T10:21:39.919Z,21.63
2022-08-05T10:24:13.372Z,21.81
2022-08-05T10:26:51.207Z,21.73
2022-08-05T10:29:24.038Z,21.96
2022-08-05T10:32:52.565Z,22.03
2022-08-05T10:35:00.832Z,22.22
2022-08-05T10:37:40.252Z,22.17
2022-08-05T10:40:49.143Z,22.12
2022-08-05T10:43:37.023Z,22.31
2022-08-05T10:46:12.235Z,22.57
2022-08-05T10:48:57.449Z,22.64
2022-08-05T10:51:28.969Z,22.59
2022-08-05T10:54:05.770Z,22.55
2022-08-05T10:56:52.875Z,22.49
2022-08-05T11:00:04.398Z,22.54
2022-08-05T11:02:34.996Z,22.67
2022-08-05T11:05:06.148Z,22.76
2022-08-05T11:08:03.343Z,22.92
2022-08-05T11:10:27.689Z,23.01
2022-08-05T11:12:58.640Z,23.03
2022-08-05T11:16:00.874Z,23.04
2022-08-05T11:18:34.027Z,22.96
2022-08-05T11:21:11.802Z,22.92
2022-08-05T11:24:05.537Z,22.73
2022-08-05T11:26:32.987Z,22.39
2022-08-05T11:29:12.145Z,22.12
2022-08-05T11:31:57.835Z,22.17
2022-08-05T11:34:51.445Z,21.88
2022-08-05T11:38:37.398Z,21.81
2022-08-05T11:41:15.486Z,21.45
2022-08-05T11:44:05.673Z,21.26
2022-08-05T11:46:58.119Z,21.31
2022-08-05T11:49:28.233Z,21.38
2022-08-05T11:51:57.509Z,21.03
2022-08-05T11:54:34.505Z,20.82
2022-08-05T11:57:08.751Z,20.81
2022-08-05T11:59:51.967Z,20.82
2022-08-05T12:02:30.218Z,20.77
2022-08-05T12:05:07.617Z,20.65
2022-08-05T12:08:03.360Z,20.60
2022-08-05T12:10:38.374Z,20.33
2022-08-05T12:13:16.541Z,20.38
2022-08-05T12:15:49.634Z,20.28
2022-08-05T12:18:33.133Z,20.12
2022-08-05T12:21:19.527Z,19.81
2022-08-05T12:24:06.951Z,19.67
2022-08-05T12:26:44.127Z,19.55
2022-08-05T12:29:26.618Z,19.53
2022-08-05T12:32:01.950Z,19.70
2022-08-05T12:34:36.934Z,19.72
2022-08-05T12:39:51.251Z,19.91
2022-08-05T12:42:20.781Z,20.10
2022-08-05T12:44:48.168Z,20.36
2022-08-05T12:47:30.409Z,20.50
2022-08-05T12:50:03.112Z,20.59
2022-08-05T12:52:42.266Z,20.42
2022-08-05T12:55:23.586Z,20.09
2022-08-05T12:58:50.750Z,20.06
2022-08-05T13:02:02.921Z,19.97
2022-08-05T13:03:32.386Z,19.91
2022-08-05T13:06:01.234Z,20.15
2022-08-05T13:08:32.421Z,20.39
2022-08-05T13:11:04.074Z,20.28
2022-08-05T13:14:06.133Z,20.49
2022-08-05T13:16:20.194Z,20.10
2022-08-05T13:18:57.709Z,20.31
2022-08-05T13:21:27.694Z,20.27
2022-08-05T13:23:55.534Z,20.15
2022-08-05T13:26:29.821Z,20.12
2022-08-05T13:28:57.269Z,20.04
2022-08-05T13:31:33.835Z,20.33
2022-08-05T13:34:23.365Z,20.54
2022-08-05T13:36:52.479Z,20.47
2022-08-05T13:40:13.196Z,20.53
2022-08-05T13:42:05.918Z,20.47
2022-08-05T13:44:32.544Z,20.34
2022-08-05T13:47:02.568Z,20.42
2022-08-05T13:49:35.688Z,20.47
2022-08-05T13:52:13.297Z,20.51
2022-08-05T13:54:40.194Z,20.51
2022-08-05T13:57:09.018Z,20.67
2022-08-05T13:59:38.302Z,20.68
2022-08-05T14:02:26.495Z,20.59
2022-08-05T14:05:11.898Z,20.57
2022-08-05T14:07:59.919Z,20.65
2022-08-05T14:10:31.464Z,20.70
2022-08-05T14:12:58.928Z,20.67
2022-08-05T14:16:07.071Z,20.51
2022-08-05T14:18:18.111Z,20.59
2022-08-05T14:20:48.042Z,20.76
2022-08-05T14:23:23.964Z,20.62
2022-08-05T14:25:53.998Z,20.28
2022-08-05T14:28:26.444Z,20.17
2022-08-05T14:30:54.396Z,20.14
2022-08-05T14:33:22.626Z,20.31
2022-08-05T14:35:51.844Z,20.29
2022-08-05T14:38:33.365Z,20.21
2022-08-05T14:41:07.200Z,20.30
2022-08-05T14:43:59.587Z,20.26
2022-08-05T14:46:28.131Z,20.22
2022-08-05T14:48:55.777Z,20.21
2022-08-05T14:51:23.868Z,20.30
2022-08-05T14:54:06.609Z,20.42
2022-08-05T14:56:44.248Z,20.42
2022-08-05T14:59:13.231Z,20.51
2022-08-05T15:01:49.008Z,20.56
2022-08-05T15:04:20.735Z,20.37
2022-08-05T15:06:52.056Z,20.38
2022-08-05T15:09:52.624Z,20.38
2022-08-05T15:12:09.476Z,20.47
2022-08-05T15:14:49.370Z,20.63
2022-08-05T15:17:45.834Z,20.71
2022-08-05T15:20:18.492Z,20.62
2022-08-05T15:22:52.266Z,20.67
2022-08-05T15:25:23.521Z,20.66
2022-08-05T15:28:09.083Z,20.68
2022-08-05T15:30:43.369Z,20.68
2022-08-05T15:33:10.857Z,20.83
2022-08-05T15:35:45.115Z,20.86
2022-08-05T15:38:35.932Z,20.75
2022-08-05T15:41:22.059Z,20.52
2022-08-05T15:43:46.851Z,20.70
2022-08-05T15:46:13.700Z,20.76
2022-08-05T15:48:40.831Z,20.74
2022-08-05T15:52:13.642Z,20.75
2022-08-05T15:54:16.486Z,20.79
2022-08-05T15:56:43.674Z,20.83
2022-08-05T15:59:22.063Z,20.80
2022-08-05T16:01:52.648Z,20.77
2022-08-05T16:04:21.238Z,20.84
2022-08-05T16:06:52.934Z,20.78
2022-08-05T16:09:19.451Z,20.83
2022-08-05T16:11:52.824Z,20.78
2022-08-05T16:14:19.844Z,20.85
2022-08-05T16:16:47.362Z,20.74
2022-08-05T16:19:18.960Z,20.80
2022-08-05T16:22:03.466Z,20.76
2022-08-05T16:24:35.928Z,20.83
2022-08-05T16:27:09.212Z,20.94
2022-08-05T16:29:37.689Z,20.98
2022-08-05T16:32:06.458Z,20.95
2022-08-05T16:34:36.315Z,20.95
2022-08-05T16:37:02.860Z,20.92
2022-08-05T16:40:05.332Z,20.90
2022-08-05T16:42:34.937Z,20.85
2022-08-05T16:45:01.908Z,20.88
2022-08-05T16:47:40.882Z,20.87
2022-08-05T16:50:19.211Z,20.59
2022-08-05T16:52:46.078Z,20.50
2022-08-05T16:55:12.880Z,20.59
2022-08-05T16:57:53.472Z,20.41
2022-08-05T17:00:34.570Z,19.75
2022-08-05T17:03:15.191Z,19.85
2022-08-05T17:05:53.218Z,19.78
2022-08-05T17:08:35.919Z,19.77
2022-08-05T17:11:12.723Z,19.78
2022-08-05T17:13:43.892Z,19.87
2022-08-05T17:16:30.232Z,20.01
2022-08-05T17:18:57.095Z,20.07
2022-08-05T17:21:23.938Z,19.97
2022-08-05T17:24:05.510Z,19.96
2022-08-05T17:26:36.257Z,19.95
2022-08-05T17:29:07.426Z,19.94
2022-08-05T17:31:41.523Z,19.92
2022-08-05T17:34:30.123Z,19.93
2022-08-05T17:37:02.289Z,19.89
2022-08-05T17:39:34.140Z,19.89
2022-08-05T17:42:17.296Z,19.96
2022-08-05T17:44:50.375Z,19.88
2022-08-05T17:47:21.884Z,19.82
2022-08-05T17:50:00.429Z,19.78
2022-08-05T17:52:32.732Z,19.79
2022-08-05T17:55:00.529Z,19.75
2022-08-05T17:57:28.029Z,19.77
2022-08-05T18:00:03.266Z,19.75
2022-08-05T18:02:33.060Z,19.67
2022-08-05T18:05:03.155Z,19.63
2022-08-05T18:07:41.210Z,19.56
2022-08-05T18:10:11.276Z,19.62
2022-08-05T18:12:39.278Z,19.60
2022-08-05T18:15:06.774Z,19.71
2022-08-05T18:18:00.480Z,19.66
2022-08-05T18:20:29.175Z,19.63
2022-08-05T18:22:57.919Z,19.54
2022-08-05T18:25:33.080Z,19.33
2022-08-05T18:28:01.714Z,19.34
2022-08-05T18:30:33.052Z,19.30
2022-08-05T18:33:00.370Z,19.36
2022-08-05T18:35:50.038Z,19.36
2022-08-05T18:38:19.131Z,19.40
2022-08-05T18:41:55.402Z,19.19
2022-08-05T18:43:42.703Z,19.29
2022-08-05T18:46:10.193Z,19.29
2022-08-05T18:48:41.460Z,19.14
2022-08-05T18:52:04.501Z,18.97
2022-08-05T18:54:14.906Z,18.75
2022-08-05T18:56:41.775Z,18.71
2022-08-05T18:59:43.923Z,18.67
2022-08-05T19:02:04.718Z,18.59
2022-08-05T19:05:03.250Z,18.52
2022-08-05T19:07:24.875Z,18.45
2022-08-05T19:09:57.172Z,18.43
2022-08-05T19:12:25.511Z,18.44
2022-08-05T19:15:00.458Z,18.43
2022-08-05T19:18:08.587Z,18.41
2022-08-05T19:20:15.769Z,18.26
2022-08-05T19:22:44.174Z,18.14
2022-08-05T19:25:11.119Z,18.07
2022-08-05T19:27:56.154Z,17.85
2022-08-05T19:30:22.671Z,17.65
2022-08-05T19:32:50.390Z,17.45
2022-08-05T19:35:16.928Z,17.41
2022-08-05T19:38:06.450Z,17.36
2022-08-05T19:40:34.779Z,17.16
2022-08-05T19:43:05.738Z,17.12
2022-08-05T19:45:36.542Z,17.01
2022-08-05T19:48:05.274Z,16.89
2022-08-05T19:50:32.299Z,16.71
2022-08-05T19:53:09.307Z,16.57
2022-08-05T19:56:12.511Z,16.46
2022-08-05T19:58:29.222Z,16.41
2022-08-05T20:00:56.601Z,16.38
2022-08-05T20:03:25.357Z,16.29
2022-08-05T20:05:56.371Z,16.12
2022-08-05T20:08:24.380Z,16.07
2022-08-05T20:10:52.284Z,16.14
2022-08-05T20:13:29.782Z,16.03
2022-08-05T20:15:57.680Z,15.89
2022-08-05T20:18:33.699Z,15.78
2022-08-05T20:21:05.302Z,15.67
2022-08-05T20:23:39.378Z,15.68
2022-08-05T20:26:17.284Z,15.57
2022-08-05T20:28:50.460Z,15.50
2022-08-05T20:31:21.682Z,15.53
2022-08-05T20:33:50.188Z,15.47
2022-08-05T20:36:17.886Z,15.29
2022-08-05T20:38:53.453Z,15.17
2022-08-05T20:41:27.190Z,14.92
2022-08-05T20:44:18.758Z,14.68
2022-08-05T20:46:54.784Z,14.49
2022-08-05T20:49:24.346Z,14.44
2022-08-05T20:51:54.137Z,14.36
2022-08-05T20:54:22.115Z,14.29
2022-08-05T20:56:49.116Z,14.31
2022-08-05T20:59:19.175Z,14.25
2022-08-05T21:01:53.605Z,14.17
2022-08-05T21:04:20.191Z,14.08
2022-08-05T21:06:46.761Z,13.90
2022-08-05T21:09:15.072Z,13.72
2022-08-05T21:12:10.868Z,13.69
2022-08-05T21:14:31.473Z,13.63
2022-08-05T21:17:05.362Z,13.69
2022-08-05T21:19:46.648Z,13.67
2022-08-05T21:22:14.600Z,13.58
2022-08-05T21:24:41.132Z,13.56
2022-08-05T21:27:09.170Z,13.45
2022-08-05T21:29:40.659Z,13.43
2022-08-05T21:32:07.766Z,13.32
2022-08-05T21:34:35.651Z,13.11
2022-08-05T21:37:02.519Z,12.97
2022-08-05T21:39:29.528Z,12.92
2022-08-05T21:42:01.014Z,12.88
2022-08-05T21:44:28.411Z,12.93
2022-08-05T21:46:57.942Z,12.99
2022-08-05T21:49:48.108Z,12.90
2022-08-05T21:52:16.193Z,12.58
2022-08-05T21:54:48.615Z,12.75
2022-08-05T21:57:31.254Z,12.85
2022-08-05T22:00:07.081Z,12.86
2022-08-05T22:02:38.272Z,12.78
2022-08-05T22:05:05.949Z,12.74
2022-08-05T22:07:40.372Z,12.66
2022-08-05T22:10:27.080Z,12.33
2022-08-05T22:12:59.178Z,12.34
2022-08-05T22:16:01.060Z,12.35
2022-08-05T22:18:25.540Z,12.33
2022-08-05T22:20:52.827Z,12.27
2022-08-05T22:24:02.452Z,12.24
2022-08-05T22:26:43.132Z,12.12
2022-08-05T22:29:17.375Z,12.10
2022-08-05T22:31:45.333Z,12.08
2022-08-05T22:34:12.888Z,12.06
2022-08-05T22:36:52.280Z,12.05
2022-08-05T22:39:21.377Z,12.11
2022-08-05T22:42:09.518Z,12.13
2022-08-05T22:44:34.936Z,12.04
2022-08-05T22:47:05.848Z,11.90
2022-08-05T22:50:20.364Z,11.86
2022-08-05T22:52:30.665Z,11.79
2022-08-05T22:55:01.803Z,11.82
2022-08-05T22:57:36.263Z,11.87
2022-08-05T23:00:07.829Z,11.83
2022-08-05T23:02:40.075Z,11.87
2022-08-05T23:05:14.902Z,11.81
2022-08-05T23:07:48.325Z,11.77
2022-08-05T23:10:20.246Z,11.69
2022-08-05T23:12:54.933Z,11.58
2022-08-05T23:15:27.071Z,11.51
2022-08-05T23:18:00.923Z,11.41
2022-08-05T23:20:30.159Z,11.38
2022-08-05T23:22:58.597Z,11.40
2022-08-05T23:25:51.090Z,11.55
2022-08-05T23:28:12.748Z,11.48
2022-08-05T23:30:43.386Z,11.60
2022-08-05T23:33:26.299Z,11.42
2022-08-05T23:36:05.355Z,11.26
2022-08-05T23:38:31.885Z,11.26
2022-08-05T23:40:58.394Z,11.18
2022-08-05T23:44:04.614Z,11.18
2022-08-05T23:46:21.336Z,11.18
2022-08-05T23:49:00.236Z,11.32
2022-08-05T23:51:52.510Z,11.38
2022-08-05T23:54:25.869Z,11.34
2022-08-05T23:56:55.202Z,11.15
2022-08-05T23:59:23.127Z,11.13
